createdAt,value
2018-09-28T00:01:53.061Z,57.10
2018-09-28T00:04:22.492Z,50.83
2018-09-28T00:06:51.736Z,46.00
2018-09-28T00:09:21.673Z,37.73
2018-09-28T00:12:00.319Z,44.13
2018-09-28T00:14:30.720Z,46.80
2018-09-28T00:17:00.642Z,55.53
2018-09-28T00:19:30.551Z,26.67
2018-09-28T00:22:00.140Z,33.80
2018-09-28T00:24:29.679Z,29.33
2018-09-28T00:26:59.311Z,71.50
2018-09-28T00:29:29.069Z,35.90
2018-09-28T00:31:59.290Z,37.90
2018-09-28T00:34:29.120Z,32.50
2018-09-28T00:36:58.580Z,57.73
2018-09-28T00:39:30.326Z,37.33
2018-09-28T00:42:00.199Z,37.10
2018-09-28T00:44:29.700Z,57.23
2018-09-28T00:47:06.100Z,42.73
2018-09-28T00:49:46.795Z,45.93
2018-09-28T00:52:19.527Z,70.23
2018-09-28T00:54:54.960Z,38.73
2018-09-28T00:57:24.129Z,34.93
2018-09-28T00:59:53.595Z,33.70
2018-09-28T01:02:22.921Z,36.20
2018-09-28T01:04:53.115Z,39.63
2018-09-28T01:07:22.892Z,43.33
2018-09-28T01:09:52.114Z,32.10
2018-09-28T01:12:22.325Z,32.83
2018-09-28T01:14:54.604Z,24.77
2018-09-28T01:17:25.743Z,45.33
2018-09-28T01:19:55.981Z,26.20
2018-09-28T01:22:25.344Z,44.40
2018-09-28T01:24:56.285Z,35.33
2018-09-28T01:27:26.058Z,39.80
2018-09-28T01:29:55.363Z,41.83
2018-09-28T01:32:24.564Z,31.07
2018-09-28T01:34:53.941Z,46.57
2018-09-28T01:37:23.235Z,33.90
2018-09-28T01:40:07.108Z,28.60
2018-09-28T01:42:37.457Z,29.80
2018-09-28T01:45:07.017Z,40.03
2018-09-28T01:47:36.388Z,37.50
2018-09-28T01:50:10.680Z,86.57
2018-09-28T01:52:48.147Z,59.93
2018-09-28T01:55:21.666Z,34.90
2018-09-28T01:57:50.802Z,42.63
2018-09-28T02:00:21.328Z,38.83
2018-09-28T02:02:50.737Z,43.53
2018-09-28T02:05:19.939Z,47.80
2018-09-28T02:07:49.615Z,38.83
2018-09-28T02:10:19.515Z,28.93
2018-09-28T02:12:48.891Z,42.43
2018-09-28T02:15:25.782Z,26.73
2018-09-28T02:17:55.104Z,33.57
2018-09-28T02:20:26.941Z,26.73
2018-09-28T02:22:56.230Z,25.70
2018-09-28T02:25:25.465Z,21.30
2018-09-28T02:27:55.172Z,17.73
2018-09-28T02:30:27.418Z,26.77
2018-09-28T02:32:57.564Z,31.93
2018-09-28T02:35:28.235Z,36.47
2018-09-28T02:37:58.094Z,18.87
2018-09-28T02:40:28.024Z,19.87
2018-09-28T02:42:57.193Z,38.17
2018-09-28T02:45:26.468Z,29.10
2018-09-28T02:47:56.456Z,48.13
2018-09-28T02:50:26.217Z,31.93
2018-09-28T02:52:59.375Z,24.27
2018-09-28T02:55:28.641Z,37.30
2018-09-28T02:57:59.075Z,35.73
2018-09-28T03:00:31.081Z,33.87
2018-09-28T03:03:01.297Z,26.00
2018-09-28T03:05:38.747Z,27.30
2018-09-28T03:08:09.485Z,28.57
2018-09-28T03:11:02.301Z,20.07
2018-09-28T03:13:34.152Z,22.43
2018-09-28T03:16:05.149Z,28.67
2018-09-28T03:18:35.152Z,29.57
2018-09-28T03:21:04.551Z,27.30
2018-09-28T03:23:33.881Z,22.23
2018-09-28T03:26:03.174Z,37.27
2018-09-28T03:28:32.247Z,23.57
2018-09-28T03:31:01.520Z,19.90
2018-09-28T03:33:31.762Z,24.40
2018-09-28T03:36:01.070Z,22.03
2018-09-28T03:38:30.166Z,26.13
2018-09-28T03:40:59.747Z,36.17
2018-09-28T03:43:28.969Z,37.20
2018-09-28T03:45:58.245Z,25.97
2018-09-28T03:48:37.333Z,32.17
2018-09-28T03:51:15.091Z,41.87
2018-09-28T03:53:50.167Z,25.60
2018-09-28T03:56:19.742Z,29.57
2018-09-28T03:58:49.197Z,19.67
2018-09-28T04:01:18.413Z,18.40
2018-09-28T04:03:48.030Z,22.53
2018-09-28T04:06:17.195Z,22.40
2018-09-28T04:08:46.374Z,19.43
2018-09-28T04:11:15.569Z,36.20
2018-09-28T04:13:44.966Z,19.43
2018-09-28T04:16:14.320Z,27.90
2018-09-28T04:18:43.421Z,26.07
2018-09-28T04:21:13.779Z,28.30
2018-09-28T04:23:42.901Z,25.80
2018-09-28T04:26:12.164Z,27.77
2018-09-28T04:28:41.313Z,18.00
2018-09-28T04:31:18.418Z,45.23
2018-09-28T04:33:49.202Z,22.87
2018-09-28T04:36:23.032Z,21.50
2018-09-28T04:38:52.539Z,28.73
2018-09-28T04:41:22.316Z,31.73
2018-09-28T04:43:51.531Z,20.40
2018-09-28T04:46:22.073Z,27.57
2018-09-28T04:48:52.705Z,21.23
2018-09-28T04:51:23.037Z,29.00
2018-09-28T04:54:03.461Z,27.77
2018-09-28T04:56:46.098Z,29.97
2018-09-28T04:59:15.626Z,28.60
2018-09-28T05:01:45.760Z,25.77
2018-09-28T05:04:15.136Z,48.43
2018-09-28T05:06:45.206Z,39.13
2018-09-28T05:09:15.233Z,45.30
2018-09-28T05:11:44.422Z,46.43
2018-09-28T05:14:16.314Z,49.33
2018-09-28T05:16:45.637Z,32.47
2018-09-28T05:19:15.257Z,34.43
2018-09-28T05:21:44.743Z,49.67
2018-09-28T05:24:15.034Z,42.43
2018-09-28T05:26:44.304Z,25.43
2018-09-28T05:29:14.857Z,33.67
2018-09-28T05:31:47.173Z,23.93
2018-09-28T05:34:16.831Z,39.00
2018-09-28T05:36:46.061Z,32.20
2018-09-28T05:39:18.275Z,47.37
2018-09-28T05:41:48.489Z,35.43
2018-09-28T05:44:18.466Z,37.87
2018-09-28T05:46:47.876Z,25.07
2018-09-28T05:49:18.132Z,46.90
2018-09-28T05:51:48.253Z,28.80
2018-09-28T05:54:17.974Z,25.63
2018-09-28T05:56:47.321Z,26.90
2018-09-28T05:59:21.980Z,26.00
2018-09-28T06:01:57.936Z,30.63
2018-09-28T06:04:32.645Z,26.23
2018-09-28T06:07:03.083Z,23.20
2018-09-28T06:09:38.607Z,27.87
2018-09-28T06:12:09.742Z,38.00
2018-09-28T06:14:39.767Z,25.13
2018-09-28T06:17:09.955Z,22.23
2018-09-28T06:19:39.433Z,28.20
2018-09-28T06:22:10.477Z,33.97
2018-09-28T06:24:40.168Z,47.30
2018-09-28T06:27:12.328Z,42.73
2018-09-28T06:29:53.531Z,33.13
2018-09-28T06:32:28.513Z,42.33
2018-09-28T06:38:30.334Z,24.57
2018-09-28T06:41:02.165Z,29.40
2018-09-28T06:43:38.678Z,32.40
2018-09-28T06:46:09.498Z,39.40
2018-09-28T06:48:39.120Z,45.13
2018-09-28T06:51:18.981Z,44.70
2018-09-28T06:53:48.646Z,37.90
2018-09-28T06:56:18.342Z,48.80
2018-09-28T06:58:47.669Z,48.00
2018-09-28T07:01:20.670Z,56.87
2018-09-28T07:03:50.321Z,54.70
2018-09-28T07:06:21.572Z,66.33
2018-09-28T07:08:52.546Z,67.47
2018-09-28T07:11:29.007Z,66.30
2018-09-28T07:14:05.507Z,76.20
2018-09-28T07:17:02.752Z,58.03
2018-09-28T07:19:41.656Z,54.27
2018-09-28T07:22:16.633Z,67.00
2018-09-28T07:24:48.333Z,83.97
2018-09-28T07:27:19.895Z,70.40
2018-09-28T07:29:49.360Z,80.23
2018-09-28T07:32:20.577Z,81.77
2018-09-28T07:34:50.244Z,73.53
2018-09-28T07:37:20.857Z,79.77
2018-09-28T07:39:50.394Z,63.17
2018-09-28T07:42:20.249Z,77.67
2018-09-28T07:44:53.232Z,64.83
2018-09-28T07:47:23.656Z,65.50
2018-09-28T07:49:57.671Z,93.73
2018-09-28T07:52:30.720Z,76.10
2018-09-28T07:55:00.421Z,61.50
2018-09-28T07:57:30.885Z,109.13
2018-09-28T08:00:01.752Z,60.40
2018-09-28T08:02:31.109Z,56.07
2018-09-28T08:05:00.424Z,76.23
2018-09-28T08:07:31.743Z,78.13
2018-09-28T08:10:02.506Z,78.03
2018-09-28T08:12:32.326Z,75.17
2018-09-28T08:15:01.806Z,75.27
2018-09-28T08:17:32.101Z,80.33
2018-09-28T08:20:02.462Z,98.17
2018-09-28T08:22:36.273Z,79.03
2018-09-28T08:25:06.612Z,85.77
2018-09-28T08:27:36.877Z,100.53
2018-09-28T08:30:07.259Z,90.97
2018-09-28T08:32:37.315Z,101.33
2018-09-28T08:35:07.289Z,96.43
2018-09-28T08:37:36.822Z,134.80
2018-09-28T08:40:06.306Z,114.60
2018-09-28T08:42:43.066Z,148.20
2018-09-28T08:45:22.928Z,131.87
2018-09-28T08:47:56.584Z,119.70
2018-09-28T08:50:28.241Z,158.73
2018-09-28T08:53:00.638Z,161.10
2018-09-28T08:55:31.290Z,150.23
2018-09-28T08:58:02.806Z,156.57
2018-09-28T09:00:34.290Z,147.30
2018-09-28T09:03:04.121Z,143.60
2018-09-28T09:05:34.989Z,138.60
2018-09-28T09:08:08.735Z,124.60
2018-09-28T09:10:38.385Z,126.73
2018-09-28T09:13:08.365Z,129.90
2018-09-28T09:15:39.172Z,118.50
2018-09-28T09:18:10.489Z,124.07
2018-09-28T09:20:43.811Z,120.40
2018-09-28T09:23:22.618Z,124.57
2018-09-28T09:25:53.144Z,114.83
2018-09-28T09:28:25.469Z,118.10
2018-09-28T09:30:54.730Z,130.43
2018-09-28T09:33:24.341Z,152.00
2018-09-28T09:35:53.830Z,122.40
2018-09-28T09:38:24.213Z,134.33
2018-09-28T09:40:56.402Z,166.97
2018-09-28T09:43:26.429Z,116.73
2018-09-28T09:45:56.349Z,125.00
2018-09-28T09:48:26.008Z,122.63
2018-09-28T09:50:56.697Z,113.07
2018-09-28T09:53:26.751Z,120.10
2018-09-28T09:55:56.422Z,142.17
2018-09-28T09:58:32.453Z,129.07
2018-09-28T10:01:06.079Z,105.67
2018-09-28T10:03:42.130Z,133.00
2018-09-28T10:06:13.351Z,125.50
2018-09-28T10:08:44.430Z,121.90
2018-09-28T10:11:16.255Z,108.00
2018-09-28T10:13:45.855Z,106.43
2018-09-28T10:16:21.778Z,110.87
2018-09-28T10:18:53.795Z,97.43
2018-09-28T10:21:25.499Z,130.27
2018-09-28T10:23:59.215Z,108.53
2018-09-28T10:26:31.435Z,113.13
2018-09-28T10:29:07.058Z,107.27
2018-09-28T10:31:38.802Z,103.67
2018-09-28T10:34:09.661Z,95.33
2018-09-28T10:36:42.254Z,104.87
2018-09-28T10:39:14.709Z,98.93
2018-09-28T10:41:46.389Z,94.17
2018-09-28T10:44:18.688Z,91.30
2018-09-28T10:46:52.404Z,82.00
2018-09-28T10:49:24.739Z,94.07
2018-09-28T10:52:06.985Z,88.30
2018-09-28T10:54:48.550Z,75.07
2018-09-28T10:57:23.858Z,72.50
2018-09-28T10:59:58.439Z,74.23
2018-09-28T11:02:40.800Z,81.73
2018-09-28T11:05:11.395Z,74.07
2018-09-28T11:07:43.190Z,62.17
2018-09-28T11:10:14.306Z,58.77
2018-09-28T11:12:48.773Z,52.37
2018-09-28T11:15:25.291Z,55.07
2018-09-28T11:18:03.476Z,48.10
2018-09-28T11:20:48.170Z,54.00
2018-09-28T11:23:18.545Z,37.77
2018-09-28T11:25:49.381Z,39.97
2018-09-28T11:28:22.297Z,61.47
2018-09-28T11:30:55.235Z,43.80
2018-09-28T11:33:25.226Z,46.33
2018-09-28T11:35:54.932Z,51.37
2018-09-28T11:38:28.670Z,38.17
2018-09-28T11:41:00.985Z,50.17
2018-09-28T11:43:37.360Z,42.67
2018-09-28T11:46:09.286Z,47.77
2018-09-28T11:48:39.740Z,51.60
2018-09-28T11:51:10.304Z,53.37
2018-09-28T11:53:44.158Z,57.37
2018-09-28T11:56:14.802Z,34.97
2018-09-28T11:58:44.396Z,51.03
2018-09-28T12:01:16.782Z,28.83
2018-09-28T12:03:48.561Z,26.83
2018-09-28T12:06:19.270Z,35.40
2018-09-28T12:09:09.227Z,38.27
2018-09-28T12:11:45.087Z,20.50
2018-09-28T12:14:15.516Z,27.97
2018-09-28T12:16:45.384Z,15.50
2018-09-28T12:19:15.883Z,42.83
2018-09-28T12:21:46.873Z,39.53
2018-09-28T12:24:20.005Z,21.67
2018-09-28T12:26:51.172Z,18.23
2018-09-28T12:29:20.676Z,18.70
2018-09-28T12:31:55.157Z,33.10
2018-09-28T12:34:25.651Z,24.47
2018-09-28T12:36:55.859Z,21.77
2018-09-28T12:39:27.366Z,52.30
2018-09-28T12:41:57.435Z,27.87
2018-09-28T12:44:27.251Z,27.23
2018-09-28T12:47:03.355Z,31.97
2018-09-28T12:49:35.225Z,28.40
2018-09-28T12:52:06.552Z,33.33
2018-09-28T12:54:37.097Z,18.13
2018-09-28T12:57:08.280Z,31.50
2018-09-28T12:59:40.817Z,22.10
2018-09-28T13:02:10.869Z,26.93
2018-09-28T13:04:45.530Z,28.03
2018-09-28T13:07:15.963Z,20.87
2018-09-28T13:09:57.720Z,24.37
2018-09-28T13:12:28.260Z,26.37
2018-09-28T13:14:59.065Z,28.10
2018-09-28T13:17:29.382Z,25.50
2018-09-28T13:20:01.092Z,22.53
2018-09-28T13:22:33.972Z,28.53
2018-09-28T13:25:13.294Z,22.37
2018-09-28T13:27:44.137Z,18.67
2018-09-28T13:30:15.999Z,22.07
2018-09-28T13:32:46.130Z,29.60
2018-09-28T13:35:16.709Z,27.87
2018-09-28T13:37:47.834Z,33.57
2018-09-28T13:40:18.439Z,35.67
2018-09-28T13:42:49.855Z,30.17
2018-09-28T13:45:25.438Z,30.63
2018-09-28T13:47:56.990Z,34.83
2018-09-28T13:50:30.012Z,34.40
2018-09-28T13:53:02.747Z,33.97
2018-09-28T13:55:32.846Z,43.33
2018-09-28T13:58:02.258Z,26.30
2018-09-28T14:00:35.082Z,48.47
2018-09-28T14:03:06.027Z,26.37
2018-09-28T14:05:38.347Z,38.63
2018-09-28T14:08:08.998Z,25.67
2018-09-28T14:10:38.743Z,33.23
2018-09-28T14:13:09.098Z,39.53
2018-09-28T14:15:40.949Z,23.73
2018-09-28T14:18:12.448Z,33.33
2018-09-28T14:20:49.269Z,27.63
2018-09-28T14:23:25.258Z,35.20
2018-09-28T14:25:55.162Z,29.70
2018-09-28T14:28:25.802Z,24.10
2018-09-28T14:30:55.362Z,34.10
2018-09-28T14:33:24.988Z,24.87
2018-09-28T14:35:56.280Z,33.37
2018-09-28T14:38:25.852Z,38.70
2018-09-28T14:40:56.776Z,24.67
2018-09-28T14:43:26.848Z,36.10
2018-09-28T14:45:57.276Z,63.30
2018-09-28T14:48:27.673Z,29.10
2018-09-28T14:50:59.089Z,36.70
2018-09-28T14:53:28.809Z,18.53
2018-09-28T14:55:58.543Z,44.97
2018-09-28T14:58:29.242Z,90.93
2018-09-28T15:01:07.043Z,33.17
2018-09-28T15:03:43.943Z,32.87
2018-09-28T15:06:14.609Z,29.57
2018-09-28T15:08:45.305Z,27.97
2018-09-28T15:11:28.884Z,60.27
2018-09-28T15:13:58.699Z,33.40
2018-09-28T15:16:28.404Z,38.43
2018-09-28T15:18:58.612Z,36.77
2018-09-28T15:21:28.110Z,23.33
2018-09-28T15:24:10.542Z,30.87
2018-09-28T15:26:49.213Z,37.03
2018-09-28T15:29:29.306Z,39.73
2018-09-28T15:32:08.963Z,40.77
2018-09-28T15:34:39.739Z,31.03
2018-09-28T15:37:09.258Z,42.70
2018-09-28T15:39:42.273Z,31.23
2018-09-28T15:42:18.889Z,37.83
2018-09-28T15:44:49.880Z,24.20
2018-09-28T15:47:19.831Z,69.73
2018-09-28T15:50:10.846Z,38.63
2018-09-28T15:52:45.710Z,26.93
2018-09-28T15:55:18.837Z,59.67
2018-09-28T15:57:55.874Z,175.83
2018-09-28T16:00:26.861Z,77.43
2018-09-28T16:02:59.872Z,87.17
2018-09-28T16:05:34.577Z,81.13
2018-09-28T16:08:08.949Z,31.03
2018-09-28T16:10:45.137Z,46.50
2018-09-28T16:13:19.934Z,77.80
2018-09-28T16:16:04.314Z,45.33
2018-09-28T16:18:40.292Z,50.00
2018-09-28T16:21:15.668Z,62.10
2018-09-28T16:23:46.276Z,61.73
2018-09-28T16:26:17.288Z,38.93
2018-09-28T16:31:57.145Z,21.83
2018-09-28T16:34:27.795Z,58.80
2018-09-28T16:37:03.902Z,29.73
2018-09-28T16:39:51.251Z,28.63
2018-09-28T16:42:37.365Z,28.50
2018-09-28T16:45:28.886Z,46.17
2018-09-28T16:48:14.845Z,46.93
2018-09-28T16:50:51.280Z,38.90
2018-09-28T16:53:33.421Z,46.43
2018-09-28T16:56:08.005Z,37.77
2018-09-28T16:58:44.195Z,19.40
2018-09-28T17:04:06.978Z,52.87
2018-09-28T17:06:45.576Z,37.73
2018-09-28T17:09:19.228Z,39.37
2018-09-28T17:11:51.848Z,31.87
2018-09-28T17:14:46.413Z,39.40
2018-09-28T17:17:22.819Z,46.17
2018-09-28T17:19:57.914Z,66.03
2018-09-28T17:22:42.365Z,81.47
2018-09-28T17:25:28.514Z,27.50
2018-09-28T17:28:05.828Z,39.70
2018-09-28T17:30:46.506Z,28.90
2018-09-28T17:33:22.178Z,36.80
2018-09-28T17:35:53.764Z,18.23
2018-09-28T17:38:25.221Z,69.73
2018-09-28T17:40:57.425Z,22.80
2018-09-28T17:43:29.988Z,31.13
2018-09-28T17:46:03.449Z,30.40
2018-09-28T17:48:35.773Z,29.50
2018-09-28T17:51:24.206Z,37.80
2018-09-28T17:54:07.001Z,25.47
2018-09-28T17:56:46.786Z,51.60
2018-09-28T17:59:31.314Z,30.70
2018-09-28T18:02:12.524Z,34.23
2018-09-28T18:04:44.056Z,42.90
2018-09-28T18:07:15.276Z,48.27
2018-09-28T18:09:59.929Z,59.13
2018-09-28T18:12:35.183Z,42.37
2018-09-28T18:15:05.306Z,40.70
2018-09-28T18:17:41.393Z,39.40
2018-09-28T18:20:11.973Z,41.37
2018-09-28T18:22:48.081Z,43.93
2018-09-28T18:25:18.432Z,31.80
2018-09-28T18:27:54.747Z,68.90
2018-09-28T18:30:26.317Z,63.40
2018-09-28T18:32:55.960Z,61.40
2018-09-28T18:35:29.955Z,39.77
2018-09-28T18:41:06.641Z,34.63
2018-09-28T18:43:48.553Z,42.50
2018-09-28T18:46:39.815Z,69.40
2018-09-28T18:52:27.790Z,52.57
2018-09-28T18:55:00.522Z,36.33
2018-09-28T18:57:37.718Z,51.53
2018-09-28T19:00:13.344Z,83.63
2018-09-28T19:02:45.826Z,89.37
2018-09-28T19:05:15.817Z,44.47
2018-09-28T19:10:45.219Z,93.60
2018-09-28T19:13:19.301Z,46.23
2018-09-28T19:15:52.551Z,34.83
2018-09-28T19:18:31.398Z,178.10
2018-09-28T19:21:17.795Z,73.13
2018-09-28T19:23:49.564Z,100.13
2018-09-28T19:26:30.698Z,78.77
2018-09-28T19:29:13.462Z,59.13
2018-09-28T19:31:51.067Z,205.83
2018-09-28T19:34:32.410Z,77.53
2018-09-28T19:37:17.009Z,147.90
2018-09-28T19:39:49.464Z,169.27
2018-09-28T19:42:21.925Z,66.20
2018-09-28T19:44:56.329Z,138.57
2018-09-28T19:47:29.191Z,139.87
2018-09-28T19:50:04.249Z,151.33
2018-09-28T19:52:33.813Z,108.27
2018-09-28T19:55:04.353Z,159.23
2018-09-28T19:57:40.384Z,49.17
2018-09-28T20:00:16.588Z,44.67
2018-09-28T20:02:47.981Z,188.60
2018-09-28T20:05:19.670Z,64.03
2018-09-28T20:07:54.554Z,99.37
2018-09-28T20:10:30.837Z,41.33
2018-09-28T20:13:01.885Z,41.40
2018-09-28T20:15:37.677Z,27.53
2018-09-28T20:18:13.500Z,43.13
2018-09-28T20:21:02.210Z,47.47
2018-09-28T20:25:56.438Z,42.80
2018-09-28T20:28:48.146Z,97.00
2018-09-28T20:34:20.004Z,37.27
2018-09-28T20:36:58.576Z,58.93
2018-09-28T20:39:32.275Z,40.50
2018-09-28T20:42:15.790Z,24.60
2018-09-28T20:44:48.365Z,29.00
2018-09-28T20:47:36.200Z,47.03
2018-09-28T20:50:33.762Z,32.83
2018-09-28T20:53:22.088Z,53.03
2018-09-28T20:56:17.921Z,35.10
2018-09-28T20:58:55.774Z,28.40
2018-09-28T21:01:37.273Z,66.23
2018-09-28T21:04:10.247Z,32.03
2018-09-28T21:06:41.319Z,60.40
2018-09-28T21:09:37.465Z,45.73
2018-09-28T21:12:09.431Z,19.63
2018-09-28T21:15:07.332Z,30.33
2018-09-28T21:17:44.568Z,66.30
2018-09-28T21:20:20.428Z,71.10
2018-09-28T21:22:50.588Z,31.03
2018-09-28T21:25:23.708Z,25.13
2018-09-28T21:27:56.816Z,31.00
2018-09-28T21:30:28.234Z,52.80
2018-09-28T21:33:04.987Z,31.13
2018-09-28T21:35:44.342Z,28.37
2018-09-28T21:38:24.799Z,138.73
2018-09-28T21:40:55.287Z,49.70
2018-09-28T21:43:29.550Z,61.97
2018-09-28T21:46:02.964Z,41.27
2018-09-28T21:51:16.161Z,25.50
2018-09-28T21:53:47.583Z,49.00
2018-09-28T21:56:17.796Z,37.80
2018-09-28T21:59:07.313Z,71.90
2018-09-28T22:02:01.317Z,31.17
2018-09-28T22:04:33.447Z,33.43
2018-09-28T22:07:05.228Z,35.40
2018-09-28T22:09:35.293Z,66.07
2018-09-28T22:12:13.072Z,47.10
2018-09-28T22:14:45.786Z,28.87
2018-09-28T22:17:15.253Z,45.87
2018-09-28T22:19:48.389Z,32.47
2018-09-28T22:22:35.234Z,29.37
2018-09-28T22:25:15.410Z,34.67
2018-09-28T22:27:48.576Z,62.80
2018-09-28T22:30:18.297Z,37.13
2018-09-28T22:32:59.299Z,44.70
2018-09-28T22:39:55.914Z,56.03
2018-09-28T22:42:35.292Z,35.07
2018-09-28T22:45:09.418Z,40.10
2018-09-28T22:47:40.280Z,33.50
2018-09-28T22:50:11.882Z,55.43
2018-09-28T22:52:41.463Z,39.93
2018-09-28T22:55:11.851Z,44.40
2018-09-28T22:57:42.256Z,159.67
2018-09-28T23:00:15.188Z,84.37
2018-09-28T23:02:45.596Z,47.50
2018-09-28T23:05:32.416Z,44.43
2018-09-28T23:08:24.669Z,29.30
2018-09-28T23:10:56.882Z,23.50
2018-09-28T23:13:38.556Z,39.27
2018-09-28T23:16:32.707Z,32.43
2018-09-28T23:19:09.625Z,32.17
2018-09-28T23:21:53.837Z,26.83
2018-09-28T23:31:01.656Z,35.70
2018-09-28T23:33:32.794Z,40.33
2018-09-28T23:36:02.565Z,38.63
2018-09-28T23:38:37.901Z,332.53
2018-09-28T23:41:14.885Z,47.17
2018-09-28T23:43:45.856Z,47.93
2018-09-28T23:46:16.149Z,34.30
2018-09-28T23:48:46.587Z,37.67
2018-09-28T23:51:23.167Z,24.60
2018-09-28T23:54:07.670Z,54.27
2018-09-28T23:56:39.990Z,50.20
2018-09-28T23:59:09.516Z,38.73
